Portada
METAR-TAF:

METAR-TAF

Aeropuertos :

Lanzarote, España

Aeropuerto de Lanzarote

latitud: 28-57N, longitud: 013-36W, altitud: 14 m

Observación

El informe se hizo hace 2 horas y 0 minutos, a las 03:00 UTC
Viento 13 kt del norte-noreste
Temperatura 20°C
Humedad 73%
Presión 1019 hPa
Escasas nubes a una altura de 2400 ft

METAR: GCRR 290300Z AUTO 03013KT //// FEW024 20/15 Q1019

Hora: 05:00 (05:00 UTC)

Pronóstico

El informe se hizo hace 3 horas y 0 minutos, a las 02:00 UTC
Pronóstico válido del 29 a las 03 UTC al 30 a las 03 UTC
Viento 13 kt del norte-noreste
Visibilidad 10 km o más
Escasas nubes a una altura de 2000 ft

TAF: GCRR 290200Z 2903/3003 02013KT 9999 FEW020 TX26/2913Z TN17/2906Z

Observaciones y pronósticos meteorológicos de más de 4000 aeropuertos (mensajes METAR y TAF).

Los puntos amarillos y rojos representan las estaciones disponibles.

Ponga el ratón en el punto deseado para ver el nombre de la estación.

Haga clic para ver las observaciones y los pronósticos meteorológicos.

Para cambiar el mapa : haga clic en los botones verdes con una cruz de color negro para hacer un zoom, en el botón verde con un guión para alejar o en las flechas verdes para mapas adyacentes.


METAR-TAF: